Terminal Aerodrome Forecast
Issued by NWS

Home | Current Version | Previous Version | Text Only | Print | Product List | Glossary On
Versions: 1 2 3 4 5 6 7 8 9 10 11 12 13 14 15 16 17 18 19 20 21 22 23 24 25
035
FTUS46 KSEW 241738
TAFSEA
TAF
KSEA 241738Z 2418/2524 22008KT P6SM BKN018 OVC025
     FM241900 24006KT P6SM BKN025
     FM242100 24006KT P6SM SCT035
     FM250100 36006KT P6SM SCT040
     FM251200 02005KT P6SM SCT015 BKN025
     FM251800 27005KT P6SM BKN030
     FM252100 29005KT P6SM SCT040=

USA.gov is the U.S. government's official web portal to all federal, state and local government web resources and services.